Alakanuk, Alaska
Current Conditions -  °F | °C
As of 7:16 PM on Saturday 22 Nov 2014 (Local Time) from PAEM Reporting Station
Clear Clear  
Wind Chill:   Ceiling: Unl
Heat Index: 16°   Visibility: 10mi
Dew Point:   Wind: 9mph
Humidity: 58%   Direction: 50°NE
Pressure: 29.32"   Gusts: NA
Location:  62.69°N, 164.62°W
Report Text: PAEM 230416Z AUTO 05008KT 10SM CLR M09/M16 A2932 RMK AO1
Loading
Personal Weather Stations






























Interactive Weather Map New forecast layout! Learn more

10-Day Weather Forecast

Advertisements
Track Severe Weather on mobile